createdAt,value
2022-10-15T00:00:08.463Z,4.73
2022-10-15T00:02:35.448Z,5.13
2022-10-15T00:05:02.155Z,5.10
2022-10-15T00:07:29.189Z,4.90
2022-10-15T00:09:56.239Z,4.70
2022-10-15T00:12:22.904Z,5.13
2022-10-15T00:14:49.584Z,5.57
2022-10-15T00:17:16.265Z,4.87
2022-10-15T00:19:42.960Z,5.10
2022-10-15T00:22:09.621Z,5.00
2022-10-15T00:24:37.235Z,4.80
2022-10-15T00:27:04.007Z,5.00
2022-10-15T00:29:30.680Z,5.50
2022-10-15T00:31:57.353Z,4.90
2022-10-15T00:34:24.037Z,5.37
2022-10-15T00:36:51.261Z,5.57
2022-10-15T00:39:18.271Z,5.37
2022-10-15T00:41:45.818Z,5.70
2022-10-15T00:44:21.741Z,4.90
2022-10-15T00:47:14.293Z,5.60
2022-10-15T00:49:45.854Z,5.73
2022-10-15T00:52:21.657Z,5.47
2022-10-15T00:54:56.831Z,5.50
2022-10-15T00:57:24.494Z,5.67
2022-10-15T00:59:54.713Z,5.20
2022-10-15T01:02:22.057Z,5.63
2022-10-15T01:04:49.468Z,5.17
2022-10-15T01:09:48.221Z,5.10
2022-10-15T01:12:43.243Z,5.53
2022-10-15T01:15:41.517Z,5.97
2022-10-15T01:18:14.312Z,5.27
2022-10-15T01:20:58.350Z,5.57
2022-10-15T01:23:46.259Z,5.23
2022-10-15T01:26:40.566Z,6.20
2022-10-15T01:29:32.677Z,6.20
2022-10-15T01:32:16.705Z,6.23
2022-10-15T01:35:10.441Z,6.10
2022-10-15T01:37:46.215Z,6.20
2022-10-15T01:40:20.801Z,5.60
2022-10-15T01:43:26.491Z,5.87
2022-10-15T01:45:58.183Z,5.40
2022-10-15T01:48:29.148Z,5.40
2022-10-15T01:51:00.627Z,6.30
2022-10-15T01:53:29.063Z,6.17
2022-10-15T01:56:03.449Z,6.37
2022-10-15T01:58:31.915Z,5.70
2022-10-15T02:00:59.239Z,5.77
2022-10-15T02:03:25.993Z,5.80
2022-10-15T02:06:02.925Z,6.37
2022-10-15T02:08:45.567Z,5.93
2022-10-15T02:11:15.723Z,5.80
2022-10-15T02:14:01.247Z,6.07
2022-10-15T02:16:37.015Z,5.30
2022-10-15T02:19:21.387Z,6.20
2022-10-15T02:22:16.061Z,5.70
2022-10-15T02:24:55.542Z,5.23
2022-10-15T02:27:23.453Z,6.53
2022-10-15T02:29:52.754Z,5.60
2022-10-15T02:32:22.244Z,6.07
2022-10-15T02:34:51.430Z,5.87
2022-10-15T02:37:22.733Z,5.97
2022-10-15T02:39:49.621Z,6.13
2022-10-15T02:42:18.760Z,6.47
2022-10-15T02:44:45.497Z,5.73
2022-10-15T02:47:12.553Z,6.10
2022-10-15T02:49:39.296Z,6.33
2022-10-15T02:52:06.085Z,6.10
2022-10-15T02:54:32.748Z,6.33
2022-10-15T02:56:59.401Z,6.27
2022-10-15T02:59:26.187Z,6.43
2022-10-15T03:01:52.922Z,6.57
2022-10-15T03:04:19.801Z,6.47
2022-10-15T03:06:46.498Z,6.00
2022-10-15T03:09:13.505Z,5.83
2022-10-15T03:11:40.228Z,5.87
2022-10-15T03:14:06.891Z,5.53
2022-10-15T03:16:33.576Z,6.20
2022-10-15T03:19:00.259Z,6.17
2022-10-15T03:21:28.674Z,6.57
2022-10-15T03:23:55.325Z,6.10
2022-10-15T03:26:21.989Z,6.07
2022-10-15T03:28:48.719Z,7.00
2022-10-15T03:31:15.463Z,6.03
2022-10-15T03:33:42.125Z,6.60
2022-10-15T03:36:09.237Z,7.23
2022-10-15T03:38:35.892Z,6.27
2022-10-15T03:41:02.607Z,6.00
2022-10-15T03:43:29.411Z,7.00
2022-10-15T03:45:56.115Z,7.00
2022-10-15T03:48:22.925Z,6.40
2022-10-15T03:50:49.600Z,6.77
2022-10-15T03:53:16.310Z,6.77
2022-10-15T03:55:43.028Z,6.07
2022-10-15T03:58:09.687Z,6.63
2022-10-15T04:00:58.781Z,6.10
2022-10-15T04:03:25.526Z,6.40
2022-10-15T04:05:54.198Z,6.87
2022-10-15T04:08:22.015Z,5.90
2022-10-15T04:10:50.578Z,7.00
2022-10-15T04:13:17.329Z,6.70
2022-10-15T04:15:44.034Z,7.23
2022-10-15T04:18:11.138Z,7.40
2022-10-15T04:20:38.256Z,6.57
2022-10-15T04:23:05.037Z,6.40
2022-10-15T04:25:31.683Z,6.37
2022-10-15T04:27:58.343Z,6.43
2022-10-15T04:30:25.024Z,6.80
2022-10-15T04:32:53.064Z,7.10
2022-10-15T04:35:19.895Z,5.83
2022-10-15T04:37:47.087Z,6.17
2022-10-15T04:40:13.887Z,6.80
2022-10-15T04:42:40.600Z,6.60
2022-10-15T04:45:07.981Z,6.77
2022-10-15T04:47:34.780Z,6.73
2022-10-15T04:50:01.515Z,6.87
2022-10-15T04:52:28.221Z,6.60
2022-10-15T04:54:54.873Z,6.97
2022-10-15T04:57:22.131Z,7.17
2022-10-15T04:59:52.549Z,6.87
2022-10-15T05:02:22.088Z,6.97
2022-10-15T05:04:49.186Z,6.30
2022-10-15T05:07:15.867Z,6.43
2022-10-15T05:09:46.149Z,7.50
2022-10-15T05:12:13.206Z,6.90
2022-10-15T05:14:39.932Z,6.33
2022-10-15T05:17:06.697Z,6.97
2022-10-15T05:19:33.351Z,7.20
2022-10-15T05:22:00.022Z,7.20
2022-10-15T05:24:26.734Z,7.07
2022-10-15T05:26:53.388Z,7.70
2022-10-15T05:29:20.116Z,6.47
2022-10-15T05:31:50.033Z,6.67
2022-10-15T05:34:16.677Z,6.87
2022-10-15T05:36:43.363Z,6.73
2022-10-15T05:39:12.141Z,6.10
2022-10-15T05:41:38.876Z,6.63
2022-10-15T05:44:05.611Z,7.23
2022-10-15T05:46:32.295Z,7.77
2022-10-15T05:48:59.079Z,6.40
2022-10-15T05:51:27.641Z,7.30
2022-10-15T05:53:56.132Z,6.93
2022-10-15T05:56:23.460Z,7.17
2022-10-15T05:58:50.386Z,8.17
2022-10-15T06:01:17.498Z,6.63
2022-10-15T06:03:44.482Z,7.20
2022-10-15T06:06:20.070Z,6.83
2022-10-15T06:08:47.678Z,7.73
2022-10-15T06:11:14.356Z,6.93
2022-10-15T06:13:42.498Z,7.80
2022-10-15T06:16:10.054Z,7.67
2022-10-15T06:18:38.565Z,7.10
2022-10-15T06:21:06.630Z,6.87
2022-10-15T06:23:33.839Z,6.90
2022-10-15T06:26:08.201Z,7.10
2022-10-15T06:28:35.849Z,6.70
2022-10-15T06:31:02.877Z,6.80
2022-10-15T06:33:29.632Z,7.63
2022-10-15T06:36:00.264Z,7.13
2022-10-15T06:38:27.210Z,7.37
2022-10-15T06:40:54.075Z,7.47
2022-10-15T06:43:20.791Z,7.00
2022-10-15T06:45:47.514Z,7.23
2022-10-15T06:48:14.166Z,7.40
2022-10-15T06:50:40.914Z,7.10
2022-10-15T06:53:08.055Z,7.57
2022-10-15T06:55:35.329Z,7.13
2022-10-15T06:58:02.084Z,6.93
2022-10-15T07:00:28.941Z,7.07
2022-10-15T07:02:55.753Z,6.93
2022-10-15T07:05:22.705Z,7.97
2022-10-15T07:07:56.651Z,7.13
2022-10-15T07:10:24.690Z,7.13
2022-10-15T07:12:51.487Z,7.60
2022-10-15T07:15:19.201Z,7.10
2022-10-15T07:17:56.638Z,8.10
2022-10-15T07:20:24.447Z,7.53
2022-10-15T07:22:55.620Z,7.97
2022-10-15T07:25:22.281Z,7.93
2022-10-15T07:27:48.936Z,7.40
2022-10-15T07:30:15.669Z,7.60
2022-10-15T07:32:45.577Z,8.60
2022-10-15T07:35:13.582Z,8.03
2022-10-15T07:37:40.722Z,7.77
2022-10-15T07:40:07.949Z,8.13
2022-10-15T07:42:34.752Z,8.10
2022-10-15T07:45:01.469Z,8.33
2022-10-15T07:47:28.350Z,7.73
2022-10-15T07:49:55.177Z,7.80
2022-10-15T07:52:22.140Z,7.97
2022-10-15T07:54:49.033Z,8.30
2022-10-15T07:57:16.427Z,8.30
2022-10-15T07:59:43.151Z,8.60
2022-10-15T08:02:16.817Z,8.10
2022-10-15T08:04:43.833Z,8.53
2022-10-15T08:07:10.613Z,7.60
2022-10-15T08:09:37.594Z,8.73
2022-10-15T08:12:06.201Z,8.70
2022-10-15T08:14:34.677Z,8.40
2022-10-15T08:17:02.952Z,9.50
2022-10-15T08:19:29.723Z,9.30
2022-10-15T08:21:56.904Z,9.27
2022-10-15T08:24:23.902Z,8.70
2022-10-15T08:26:50.559Z,9.00
2022-10-15T08:29:17.211Z,8.93
2022-10-15T08:31:43.960Z,9.00
2022-10-15T08:34:10.721Z,8.50
2022-10-15T08:36:37.380Z,8.40
2022-10-15T08:39:07.176Z,8.57
2022-10-15T08:41:40.026Z,8.73
2022-10-15T08:44:13.373Z,8.50
2022-10-15T08:46:45.679Z,8.10
2022-10-15T08:49:29.650Z,8.73
2022-10-15T08:52:14.544Z,8.43
2022-10-15T08:54:41.344Z,7.80
2022-10-15T08:57:39.640Z,9.13
2022-10-15T09:00:33.329Z,9.13
2022-10-15T09:03:26.201Z,8.70
2022-10-15T09:05:58.694Z,9.13
2022-10-15T09:08:42.637Z,9.00
2022-10-15T09:11:37.528Z,10.00
2022-10-15T09:14:09.103Z,19.67
2022-10-15T09:16:38.989Z,29.70
2022-10-15T09:19:15.291Z,32.97
2022-10-15T09:21:42.834Z,67.63
2022-10-15T09:24:13.177Z,96.20
2022-10-15T09:26:58.746Z,119.07
2022-10-15T09:29:32.795Z,137.50
2022-10-15T09:32:19.115Z,147.27
2022-10-15T09:34:56.621Z,146.60
2022-10-15T09:37:36.409Z,145.87
2022-10-15T09:40:32.736Z,147.20
2022-10-15T09:43:01.411Z,147.20
2022-10-15T09:45:28.233Z,140.77
2022-10-15T09:48:00.358Z,138.97
2022-10-15T09:50:39.565Z,139.50
2022-10-15T09:53:27.491Z,139.40
2022-10-15T09:56:15.614Z,136.23
2022-10-15T09:58:48.453Z,137.53
2022-10-15T10:01:23.256Z,132.47
2022-10-15T10:04:25.280Z,132.57
2022-10-15T10:06:55.387Z,128.27
2022-10-15T10:09:38.177Z,132.27
2022-10-15T10:12:08.279Z,127.83
2022-10-15T10:14:54.341Z,123.70
2022-10-15T10:17:23.581Z,125.90
2022-10-15T10:20:08.748Z,123.37
2022-10-15T10:22:51.225Z,122.37
2022-10-15T10:25:29.727Z,120.17
2022-10-15T10:28:03.887Z,116.97
2022-10-15T10:30:39.476Z,114.70
2022-10-15T10:33:06.884Z,111.30
2022-10-15T10:35:50.523Z,115.47
2022-10-15T10:38:27.327Z,108.20
2022-10-15T10:40:59.111Z,111.27
2022-10-15T10:43:28.183Z,105.40
2022-10-15T10:46:04.268Z,104.80
2022-10-15T10:48:46.214Z,103.27
2022-10-15T10:51:21.795Z,99.37
2022-10-15T10:53:50.065Z,99.47
2022-10-15T10:56:27.926Z,96.07
2022-10-15T10:59:16.403Z,96.77
2022-10-15T11:01:43.232Z,92.10
2022-10-15T11:04:19.528Z,92.50
2022-10-15T11:06:59.036Z,89.60
2022-10-15T11:09:53.774Z,89.73
2022-10-15T11:12:40.815Z,86.03
2022-10-15T11:15:36.700Z,85.87
2022-10-15T11:18:19.862Z,87.77
2022-10-15T11:20:58.699Z,84.70
2022-10-15T11:23:46.179Z,85.33
2022-10-15T11:27:06.539Z,78.70
2022-10-15T11:29:41.776Z,78.60
2022-10-15T11:33:01.871Z,75.30
2022-10-15T11:35:48.493Z,77.00
2022-10-15T11:38:20.467Z,75.37
2022-10-15T11:40:59.248Z,74.30
2022-10-15T11:43:54.982Z,73.73
2022-10-15T11:46:46.473Z,71.20
2022-10-15T11:49:44.031Z,72.73
2022-10-15T11:52:22.918Z,69.57
2022-10-15T11:55:14.106Z,67.17
2022-10-15T11:57:43.222Z,67.93
2022-10-15T12:00:30.205Z,66.43
2022-10-15T12:03:22.442Z,67.00
2022-10-15T12:05:56.960Z,63.47
2022-10-15T12:08:28.049Z,62.70
2022-10-15T12:11:40.881Z,62.90
2022-10-15T12:14:28.997Z,61.93
2022-10-15T12:17:27.552Z,58.63
2022-10-15T12:19:56.283Z,62.27
2022-10-15T12:22:35.136Z,60.40
2022-10-15T12:25:02.156Z,59.63
2022-10-15T12:27:34.533Z,56.23
2022-10-15T12:30:04.164Z,57.70
2022-10-15T12:32:36.664Z,58.47
2022-10-15T12:35:07.068Z,56.77
2022-10-15T12:37:38.328Z,54.50
2022-10-15T12:40:28.295Z,54.63
2022-10-15T12:43:12.103Z,53.03
2022-10-15T12:45:48.585Z,53.60
2022-10-15T12:48:15.209Z,50.83
2022-10-15T12:50:42.461Z,50.77
2022-10-15T12:53:45.391Z,51.10
2022-10-15T12:56:17.938Z,50.23
2022-10-15T12:58:51.074Z,47.00
2022-10-15T13:01:20.625Z,47.03
2022-10-15T13:03:52.836Z,47.77
2022-10-15T13:06:22.493Z,47.20
2022-10-15T13:09:05.068Z,47.17
2022-10-15T13:11:37.020Z,47.50
2022-10-15T13:14:12.377Z,44.93
2022-10-15T13:16:47.537Z,47.73
2022-10-15T13:19:22.872Z,45.10
2022-10-15T13:22:01.111Z,44.10
2022-10-15T13:24:30.423Z,43.43
2022-10-15T13:27:00.560Z,42.87
2022-10-15T13:29:28.854Z,41.27
2022-10-15T13:31:57.539Z,41.87
2022-10-15T13:34:36.603Z,42.50
2022-10-15T13:37:04.721Z,40.00
2022-10-15T13:39:35.250Z,41.90
2022-10-15T13:42:18.085Z,40.07
2022-10-15T13:45:13.840Z,39.97
2022-10-15T13:47:46.638Z,40.47
2022-10-15T13:50:24.528Z,38.53
2022-10-15T13:53:09.060Z,37.33
2022-10-15T13:55:43.981Z,37.20
2022-10-15T13:58:26.458Z,36.80
2022-10-15T14:01:21.227Z,34.50
2022-10-15T14:03:50.076Z,35.83
2022-10-15T14:06:31.314Z,36.50
2022-10-15T14:09:05.418Z,35.97
2022-10-15T14:11:34.224Z,34.87
2022-10-15T14:14:00.937Z,35.20
2022-10-15T14:16:39.492Z,34.50
2022-10-15T14:19:06.587Z,34.57
2022-10-15T14:21:34.668Z,33.07
2022-10-15T14:24:10.338Z,34.10
2022-10-15T14:26:39.121Z,30.80
2022-10-15T14:29:07.494Z,32.47
2022-10-15T14:31:40.600Z,32.23
2022-10-15T14:34:35.194Z,31.20
2022-10-15T14:37:29.189Z,29.63
2022-10-15T14:40:15.348Z,28.77
2022-10-15T14:42:48.697Z,29.63
2022-10-15T14:45:18.135Z,29.67
2022-10-15T14:47:48.809Z,30.50
2022-10-15T14:50:17.019Z,31.17
2022-10-15T14:52:50.410Z,29.67
2022-10-15T14:55:33.097Z,29.40
2022-10-15T14:58:06.700Z,28.57
2022-10-15T15:00:45.074Z,29.60
2022-10-15T15:03:16.366Z,27.60
2022-10-15T15:05:49.322Z,28.93
2022-10-15T15:08:16.492Z,28.17
2022-10-15T15:10:44.619Z,28.70
2022-10-15T15:13:16.730Z,28.30
2022-10-15T15:15:43.420Z,27.70
2022-10-15T15:18:11.091Z,27.73
2022-10-15T15:20:38.554Z,25.43
2022-10-15T15:23:05.462Z,25.20
2022-10-15T15:25:36.984Z,27.20
2022-10-15T15:28:04.687Z,25.03
2022-10-15T15:30:34.249Z,24.93
2022-10-15T15:33:01.142Z,24.03
2022-10-15T15:35:52.742Z,24.17
2022-10-15T15:38:21.606Z,23.60
2022-10-15T15:40:49.436Z,23.60
2022-10-15T15:43:18.833Z,25.50
2022-10-15T15:45:46.846Z,24.50
2022-10-15T15:48:14.209Z,25.10
2022-10-15T15:50:40.960Z,23.13
2022-10-15T15:53:07.656Z,25.10
2022-10-15T15:55:34.584Z,23.40
2022-10-15T15:58:01.266Z,23.43
2022-10-15T16:00:28.332Z,22.20
2022-10-15T16:02:57.865Z,22.73
2022-10-15T16:05:25.012Z,23.40
2022-10-15T16:07:51.672Z,22.90
2022-10-15T16:10:18.640Z,22.70
2022-10-15T16:12:45.379Z,21.80
2022-10-15T16:15:14.682Z,23.70
2022-10-15T16:17:42.672Z,23.53
2022-10-15T16:20:10.347Z,23.83
2022-10-15T16:22:37.077Z,24.30
2022-10-15T16:25:04.060Z,24.90
2022-10-15T16:27:30.868Z,25.37
2022-10-15T16:29:57.514Z,22.63
2022-10-15T16:32:24.932Z,22.27
2022-10-15T16:34:51.684Z,22.60
2022-10-15T16:37:18.501Z,21.67
2022-10-15T16:39:45.162Z,23.10
2022-10-15T16:42:13.643Z,22.47
2022-10-15T16:44:40.340Z,21.00
2022-10-15T16:47:07.152Z,20.67
2022-10-15T16:49:33.812Z,21.63
2022-10-15T16:52:00.499Z,22.53
2022-10-15T16:54:27.172Z,21.97
2022-10-15T16:56:54.413Z,21.77
2022-10-15T17:03:02.714Z,19.47
2022-10-15T17:05:31.548Z,19.57
2022-10-15T17:07:58.212Z,20.60
2022-10-15T17:10:25.790Z,19.00
2022-10-15T17:12:53.189Z,19.87
2022-10-15T17:15:19.860Z,18.77
2022-10-15T17:17:46.728Z,20.03
2022-10-15T17:20:13.416Z,19.63
2022-10-15T17:22:40.096Z,18.73
2022-10-15T17:25:06.953Z,18.37
2022-10-15T17:27:35.631Z,18.30
2022-10-15T17:30:02.304Z,18.23
2022-10-15T17:32:28.956Z,18.97
2022-10-15T17:34:58.172Z,18.20
2022-10-15T17:37:26.873Z,16.83
2022-10-15T17:39:53.620Z,18.00
2022-10-15T17:42:21.735Z,17.40
2022-10-15T17:44:48.851Z,17.20
2022-10-15T17:47:15.500Z,18.27
2022-10-15T17:49:42.539Z,17.73
2022-10-15T17:52:09.852Z,18.83
2022-10-15T17:54:36.528Z,18.77
2022-10-15T17:57:03.202Z,19.90
2022-10-15T17:59:29.979Z,20.93
2022-10-15T18:01:59.833Z,19.77
2022-10-15T18:04:28.455Z,18.60
2022-10-15T18:06:55.156Z,19.60
2022-10-15T18:09:21.857Z,17.73
2022-10-15T18:11:49.031Z,18.33
2022-10-15T18:14:15.886Z,18.60
2022-10-15T18:16:43.309Z,18.40
2022-10-15T18:19:10.344Z,18.17
2022-10-15T18:21:37.116Z,17.07
2022-10-15T18:24:03.956Z,17.97
2022-10-15T18:26:30.684Z,18.33
2022-10-15T18:28:57.446Z,19.20
2022-10-15T18:31:26.157Z,17.37
2022-10-15T18:33:56.001Z,18.30
2022-10-15T18:36:24.443Z,18.03
2022-10-15T18:38:51.564Z,17.00
2022-10-15T18:41:23.896Z,16.37
2022-10-15T18:44:01.543Z,16.33
2022-10-15T18:46:30.562Z,17.83
2022-10-15T18:48:58.234Z,16.97
2022-10-15T18:51:25.558Z,17.57
2022-10-15T18:53:52.495Z,17.57
2022-10-15T18:56:19.331Z,15.97
2022-10-15T18:58:46.284Z,16.60
2022-10-15T19:01:24.795Z,16.37
2022-10-15T19:03:52.753Z,16.53
2022-10-15T19:06:23.362Z,15.27
2022-10-15T19:08:50.313Z,15.33
2022-10-15T19:11:17.776Z,16.03
2022-10-15T19:13:44.585Z,15.23
2022-10-15T19:16:11.880Z,15.60
2022-10-15T19:18:38.776Z,15.07
2022-10-15T19:21:06.226Z,15.00
2022-10-15T19:23:34.092Z,15.60
2022-10-15T19:26:01.406Z,14.47
2022-10-15T19:28:29.057Z,14.97
2022-10-15T19:30:57.745Z,14.70
2022-10-15T19:33:25.699Z,15.07
2022-10-15T19:35:53.117Z,14.57
2022-10-15T19:38:20.071Z,13.50
2022-10-15T19:40:49.415Z,14.20
2022-10-15T19:43:18.608Z,13.73
2022-10-15T19:45:46.579Z,14.33
2022-10-15T19:48:16.080Z,14.50
2022-10-15T19:50:44.917Z,14.80
2022-10-15T19:53:16.748Z,15.07
2022-10-15T19:55:44.722Z,14.57
2022-10-15T19:58:11.605Z,14.33
2022-10-15T20:00:38.295Z,13.10
2022-10-15T20:03:05.029Z,15.27
2022-10-15T20:05:31.787Z,13.77
2022-10-15T20:07:58.639Z,13.70
2022-10-15T20:10:26.363Z,16.30
2022-10-15T20:12:53.695Z,20.80
2022-10-15T20:15:20.658Z,20.07
2022-10-15T20:17:48.008Z,20.83
2022-10-15T20:20:15.200Z,21.00
2022-10-15T20:22:42.060Z,21.27
2022-10-15T20:25:09.115Z,18.83
2022-10-15T20:27:35.774Z,21.00
2022-10-15T20:30:02.776Z,19.90
2022-10-15T20:32:34.683Z,22.43
2022-10-15T20:35:03.192Z,20.30
2022-10-15T20:37:29.868Z,19.17
2022-10-15T20:42:28.407Z,20.13
2022-10-15T20:44:55.301Z,19.83
2022-10-15T20:47:23.365Z,16.97
2022-10-15T20:49:53.192Z,16.90
2022-10-15T20:52:21.681Z,16.60
2022-10-15T20:54:48.421Z,16.80
2022-10-15T20:57:15.198Z,15.97
2022-10-15T20:59:41.859Z,15.83
2022-10-15T21:02:08.516Z,15.53
2022-10-15T21:04:35.227Z,15.80
2022-10-15T21:07:01.904Z,15.87
2022-10-15T21:09:28.577Z,15.27
2022-10-15T21:11:55.308Z,14.67
2022-10-15T21:14:22.001Z,15.70
2022-10-15T21:16:48.671Z,14.20
2022-10-15T21:19:15.534Z,16.97
2022-10-15T21:21:42.192Z,16.30
2022-10-15T21:24:08.866Z,14.17
2022-10-15T21:26:35.535Z,15.23
2022-10-15T21:29:02.280Z,14.90
2022-10-15T21:31:29.269Z,15.43
2022-10-15T21:33:56.180Z,13.90
2022-10-15T21:36:27.831Z,14.80
2022-10-15T21:38:55.537Z,14.10
2022-10-15T21:41:23.510Z,14.90
2022-10-15T21:46:22.503Z,14.70
2022-10-15T21:48:49.647Z,13.80
2022-10-15T21:51:23.717Z,14.80
2022-10-15T21:53:50.542Z,13.87
2022-10-15T21:56:17.725Z,14.27
2022-10-15T21:58:45.048Z,13.47
2022-10-15T22:01:17.093Z,14.27
2022-10-15T22:03:46.546Z,13.33
2022-10-15T22:06:13.971Z,13.40
2022-10-15T22:08:41.897Z,13.70
2022-10-15T22:11:13.270Z,13.53
2022-10-15T22:13:41.196Z,13.90
2022-10-15T22:16:08.506Z,13.57
2022-10-15T22:18:35.487Z,13.57
2022-10-15T22:21:15.570Z,13.00
2022-10-15T22:23:53.781Z,13.37
2022-10-15T22:26:23.204Z,12.77
2022-10-15T22:28:52.880Z,12.57
2022-10-15T22:31:19.607Z,13.27
2022-10-15T22:33:47.117Z,13.40
2022-10-15T22:36:22.205Z,11.70
2022-10-15T22:38:53.649Z,12.40
2022-10-15T22:41:20.350Z,12.10
2022-10-15T22:43:47.038Z,11.90
2022-10-15T22:46:14.252Z,11.50
2022-10-15T22:48:42.292Z,11.13
2022-10-15T22:51:11.641Z,12.27
2022-10-15T22:53:38.369Z,12.03
2022-10-15T22:56:07.913Z,11.60
2022-10-15T22:58:35.321Z,11.33
2022-10-15T23:01:12.923Z,11.00
2022-10-15T23:03:41.282Z,12.33
2022-10-15T23:06:07.986Z,11.80
2022-10-15T23:08:35.812Z,11.77
2022-10-15T23:11:09.964Z,11.73
2022-10-15T23:13:38.213Z,11.60
2022-10-15T23:16:11.921Z,11.23
2022-10-15T23:18:38.842Z,11.43
2022-10-15T23:21:10.265Z,11.40
2022-10-15T23:23:36.940Z,12.23
2022-10-15T23:26:03.680Z,11.80
2022-10-15T23:28:30.401Z,11.03
2022-10-15T23:30:57.259Z,11.47
2022-10-15T23:33:24.125Z,10.87
2022-10-15T23:36:04.588Z,10.70
2022-10-15T23:38:31.407Z,11.40
2022-10-15T23:41:07.116Z,11.00
2022-10-15T23:43:34.321Z,10.57
2022-10-15T23:46:01.416Z,11.13
2022-10-15T23:48:28.942Z,11.83
2022-10-15T23:50:59.397Z,10.30
2022-10-15T23:53:29.366Z,10.80
2022-10-15T23:55:56.087Z,10.70
2022-10-15T23:58:22.732Z,11.30
